Time;durP1;ratioP1;P1;durP2;ratioP2;P2;SDS_P1;SDS_P2;PMS_P1;PMS_P2;Temp;Humidity;BMP_temperature;BMP_pressure;BME280_temperature;BME280_humidity;BME280_pressure;Samples;Min_cycle;Max_cycle;Signal;HPM_P1;HPM_P2
2023/01/07 00:01:40;;;;;;;;;;;;;;;25.43;34.49;95848.28;5008035;28;1910;-71
2023/01/07 00:04:06;;;;;;;;;;;;;;;25.44;34.75;95844.56;5006754;28;1733;-70
2023/01/07 00:06:33;;;;;;;;;;;;;;;25.44;34.68;95840.00;5010995;28;1713;-70
2023/01/07 00:08:58;;;;;;;;;;;;;;;25.45;34.67;95841.66;5011431;28;1626;-69
2023/01/07 00:11:28;;;;;;;;;;;;;;;25.46;34.73;95843.31;5011396;28;1653;-70
2023/01/07 00:13:54;;;;;;;;;;;;;;;25.46;34.87;95845.19;5003025;28;1736;-70
2023/01/07 00:16:21;;;;;;;;;;;;;;;25.48;35.02;95856.53;5012106;28;1761;-70
2023/01/07 00:18:46;;;;;;;;;;;;;;;25.48;34.85;95851.16;5012562;28;2028;-70
2023/01/07 00:21:13;;;;;;;;;;;;;;;25.49;35.09;95848.25;5010371;28;1902;-71
2023/01/07 00:23:40;;;;;;;;;;;;;;;25.50;35.11;95849.91;5012302;28;1672;-70
2023/01/07 00:26:06;;;;;;;;;;;;;;;25.50;35.12;95855.28;5002975;28;1735;-71
2023/01/07 00:28:32;;;;;;;;;;;;;;;25.49;35.06;95848.25;5009916;28;1531;-70
2023/01/07 00:31:01;;;;;;;;;;;;;;;25.47;35.09;95844.13;5012059;28;1621;-69
2023/01/07 00:33:27;;;;;;;;;;;;;;;25.46;35.16;95853.22;5012058;28;1726;-67
2023/01/07 00:35:59;;;;;;;;;;;;;;;25.44;35.32;95841.88;5006821;28;1448;-68
2023/01/07 00:38:24;;;;;;;;;;;;;;;25.43;35.49;95843.75;5007897;28;1803;-69
2023/01/07 00:40:50;;;;;;;;;;;;;;;25.43;35.63;95854.47;5011933;28;1702;-69
2023/01/07 00:43:15;;;;;;;;;;;;;;;25.44;35.84;95856.13;5003307;28;1908;-70
2023/01/07 00:45:40;;;;;;;;;;;;;;;25.48;35.74;95861.91;5007957;28;1532;-69
2023/01/07 00:48:05;;;;;;;;;;;;;;;25.51;35.80;95848.03;5000639;28;1726;-69
2023/01/07 00:50:32;;;;;;;;;;;;;;;25.55;35.84;95857.31;5008959;28;1754;-70
2023/01/07 00:52:57;;;;;;;;;;;;;;;25.53;35.89;95852.16;5010880;28;1630;-68
2023/01/07 00:55:23;;;;;;;;;;;;;;;25.54;35.78;95855.66;5009949;28;1711;-67
2023/01/07 00:57:49;;;;;;;;;;;;;;;25.53;36.00;95860.22;5009367;28;1663;-68
2023/01/07 01:00:16;;;;;;;;;;;;;;;25.53;36.14;95859.41;5000481;28;1650;-69
2023/01/07 01:02:41;;;;;;;;;;;;;;;25.54;36.26;95861.03;5009762;28;1952;-69
2023/01/07 01:05:07;;;;;;;;;;;;;;;25.53;36.28;95870.97;5010143;28;1729;-69
2023/01/07 01:07:33;;;;;;;;;;;;;;;25.53;36.48;95875.53;5009804;28;1758;-69
2023/01/07 01:09:58;;;;;;;;;;;;;;;25.54;36.11;95882.53;5006515;28;1573;-69
2023/01/07 01:12:24;;;;;;;;;;;;;;;25.54;36.37;95877.16;5005932;28;1800;-69
2023/01/07 01:14:49;;;;;;;;;;;;;;;25.55;36.44;95881.50;5010818;28;1661;-70
2023/01/07 01:17:14;;;;;;;;;;;;;;;25.55;36.76;95879.63;5009457;28;1655;-70
2023/01/07 01:19:39;;;;;;;;;;;;;;;25.55;36.67;95882.31;5010185;28;1714;-74
2023/01/07 01:22:05;;;;;;;;;;;;;;;25.60;36.72;95870.09;5000206;28;1906;-71
2023/01/07 01:24:30;;;;;;;;;;;;;;;25.64;37.00;95872.13;5010599;28;1724;-71
2023/01/07 01:26:55;;;;;;;;;;;;;;;25.66;37.05;95872.75;5010419;28;1707;-71
2023/01/07 01:29:21;;;;;;;;;;;;;;;25.67;37.11;95877.09;5010598;28;1577;-71
2023/01/07 01:31:47;;;;;;;;;;;;;;;25.69;37.07;95876.84;5010631;28;1443;-70
2023/01/07 01:34:12;;;;;;;;;;;;;;;25.71;37.02;95880.97;5000836;28;1728;-70
2023/01/07 01:36:38;;;;;;;;;;;;;;;25.72;37.06;95876.44;5000839;28;1644;-71
2023/01/07 01:39:03;;;;;;;;;;;;;;;25.72;36.92;95874.56;5011134;28;1677;-70
2023/01/07 01:41:29;;;;;;;;;;;;;;;25.73;36.98;95868.16;5007885;28;1982;-70
2023/01/07 01:43:54;;;;;;;;;;;;;;;25.74;37.07;95872.47;5003396;28;1838;-71
2023/01/07 01:46:25;;;;;;;;;;;;;;;25.75;37.20;95868.75;5005739;28;1638;-71
2023/01/07 01:48:55;;;;;;;;;;;;;;;25.77;37.21;95876.59;5009915;28;1687;-71
2023/01/07 01:51:22;;;;;;;;;;;;;;;25.77;36.94;95866.66;5008789;28;1581;-71
2023/01/07 01:53:49;;;;;;;;;;;;;;;25.77;37.00;95869.34;5010722;28;1664;-71
2023/01/07 01:56:26;;;;;;;;;;;;;;;25.78;37.03;95860.25;5000762;28;1719;-71
2023/01/07 01:58:54;;;;;;;;;;;;;;;25.78;37.19;95862.94;4999293;28;1528;-71
2023/01/07 02:01:19;;;;;;;;;;;;;;;25.80;37.00;95860.84;5009939;28;1894;-71
2023/01/07 02:03:45;;;;;;;;;;;;;;;25.80;37.17;95854.66;5008850;28;1631;-72
2023/01/07 02:06:16;;;;;;;;;;;;;;;25.81;36.79;95850.91;5008429;28;1812;-70
2023/01/07 02:08:42;;;;;;;;;;;;;;;25.81;37.10;95867.03;5004003;28;1445;-71
2023/01/07 02:11:13;;;;;;;;;;;;;;;25.80;37.19;95860.84;5009949;28;1578;-70
2023/01/07 02:13:50;;;;;;;;;;;;;;;25.81;37.25;95850.91;5010348;28;1688;-72
2023/01/07 02:16:29;;;;;;;;;;;;;;;25.83;36.79;95853.44;5009067;28;1689;-69
2023/01/07 02:19:03;;;;;;;;;;;;;;;25.82;37.15;95851.78;5000627;28;1643;-68
2023/01/07 02:21:28;;;;;;;;;;;;;;;25.77;37.10;95855.91;5009504;28;1910;-68
2023/01/07 02:24:07;;;;;;;;;;;;;;;25.75;36.99;95846.41;5009488;28;1600;-68
2023/01/07 02:26:45;;;;;;;;;;;;;;;25.73;37.26;95851.22;5008478;28;1741;-68
2023/01/07 02:29:29;;;;;;;;;;;;;;;25.70;37.35;95847.09;5005133;28;1601;-68
2023/01/07 02:32:00;;;;;;;;;;;;;;;25.69;37.00;95849.97;5004151;28;1728;-68
2023/01/07 02:34:28;;;;;;;;;;;;;;;25.67;37.16;95855.59;5009105;28;1693;-68
2023/01/07 02:37:00;;;;;;;;;;;;;;;25.67;37.32;95849.38;5008771;28;1657;-68
2023/01/07 02:39:25;;;;;;;;;;;;;;;25.65;37.24;95844.22;5010498;28;1820;-68
2023/01/07 02:41:57;;;;;;;;;;;;;;;25.64;37.10;95834.50;5000072;28;1902;-70
2023/01/07 02:44:25;;;;;;;;;;;;;;;25.64;37.16;95837.19;5009140;28;1674;-70
2023/01/07 02:47:03;;;;;;;;;;;;;;;25.64;37.57;95845.25;5009959;28;1649;-69
2023/01/07 02:49:28;;;;;;;;;;;;;;;25.64;37.42;95844.44;5010022;28;1530;-69
2023/01/07 02:51:53;;;;;;;;;;;;;;;25.65;37.24;95841.53;5005712;28;1726;-70
2023/01/07 02:54:24;;;;;;;;;;;;;;;25.70;37.52;95846.25;5007655;28;1730;-71
2023/01/07 02:56:49;;;;;;;;;;;;;;;25.74;37.16;95842.09;5014051;28;1618;-68
2023/01/07 02:59:43;;;;;;;;;;;;;;;25.75;37.33;95841.88;5012869;28;1767;-69
2023/01/07 03:02:17;;;;;;;;;;;;;;;25.76;37.28;95853.47;5011248;28;1906;-68
2023/01/07 03:05:05;;;;;;;;;;;;;;;25.75;37.22;95841.03;5003671;28;1665;-68
2023/01/07 03:07:53;;;;;;;;;;;;;;;25.68;36.99;95846.47;5003788;28;1734;-67
2023/01/07 03:10:39;;;;;;;;;;;;;;;25.76;37.25;95854.28;5013466;28;1690;-67
2023/01/07 03:13:06;;;;;;;;;;;;;;;25.77;37.25;95849.72;5011460;28;1776;-67
2023/01/07 03:15:40;;;;;;;;;;;;;;;25.77;37.21;95855.91;5003458;28;1564;-67
2023/01/07 03:18:32;;;;;;;;;;;;;;;25.78;37.16;95845.97;5000436;28;1746;-68
2023/01/07 03:21:04;;;;;;;;;;;;;;;25.78;37.26;95844.13;5007563;28;1657;-68
2023/01/07 03:23:29;;;;;;;;;;;;;;;25.78;37.03;95843.28;5011735;28;1688;-68
2023/01/07 03:25:57;;;;;;;;;;;;;;;25.79;37.25;95851.16;5004154;28;1626;-67
2023/01/07 03:28:26;;;;;;;;;;;;;;;25.80;37.04;95849.28;5005458;28;1709;-67
2023/01/07 03:30:53;;;;;;;;;;;;;;;25.80;37.17;95850.09;5007297;28;1662;-67
2023/01/07 03:33:29;;;;;;;;;;;;;;;25.82;37.12;95841.84;5010818;28;1700;-67
2023/01/07 03:35:56;;;;;;;;;;;;;;;25.82;36.96;95857.16;5012588;28;1550;-67
2023/01/07 03:38:21;;;;;;;;;;;;;;;25.82;37.09;95851.78;5003363;28;1619;-67
2023/01/07 03:40:47;;;;;;;;;;;;;;;25.83;37.02;95850.75;5012370;28;1568;-67
2023/01/07 03:43:13;;;;;;;;;;;;;;;25.83;37.00;95853.44;5011390;28;1902;-66
2023/01/07 03:45:39;;;;;;;;;;;;;;;25.84;37.07;95849.69;5007910;28;1601;-67
2023/01/07 03:48:04;;;;;;;;;;;;;;;25.79;37.33;95851.16;5010726;28;1656;-66
2023/01/07 03:50:30;;;;;;;;;;;;;;;25.76;37.29;95854.28;5002455;28;1612;-65
2023/01/07 03:52:55;;;;;;;;;;;;;;;25.73;37.56;95859.28;5011926;28;1589;-65
2023/01/07 03:55:20;;;;;;;;;;;;;;;25.70;37.71;95868.59;5011744;28;1657;-65
2023/01/07 03:57:45;;;;;;;;;;;;;;;25.68;37.55;95867.97;5011563;28;1462;-66
2023/01/07 04:00:12;;;;;;;;;;;;;;;25.66;37.60;95864.69;5006078;28;1706;-69
2023/01/07 04:02:37;;;;;;;;;;;;;;;25.64;37.73;95866.75;4993099;28;1903;-67
2023/01/07 04:05:03;;;;;;;;;;;;;;;25.64;37.89;95865.94;5011531;28;1620;-67
2023/01/07 04:07:28;;;;;;;;;;;;;;;25.63;37.92;95869.66;5011299;28;1730;-67
2023/01/07 04:09:53;;;;;;;;;;;;;;;25.62;37.98;95884.97;5011231;28;1670;-65
2023/01/07 04:12:19;;;;;;;;;;;;;;;25.62;37.64;95879.59;5002992;28;1733;-65
2023/01/07 04:14:44;;;;;;;;;;;;;;;25.61;37.71;95883.31;5012344;28;1437;-64
2023/01/07 04:17:09;;;;;;;;;;;;;;;25.60;38.05;95880.84;5012090;28;1674;-65
2023/01/07 04:19:37;;;;;;;;;;;;;;;25.59;37.85;95885.41;5011533;28;1689;-66
2023/01/07 04:22:03;;;;;;;;;;;;;;;25.58;37.92;95881.88;5011162;28;1965;-64
2023/01/07 04:24:28;;;;;;;;;;;;;;;25.59;37.79;95882.72;5002394;28;1535;-65
2023/01/07 04:26:53;;;;;;;;;;;;;;;25.58;37.84;95886.44;5011981;28;1583;-65
2023/01/07 04:29:19;;;;;;;;;;;;;;;25.57;37.94;95879.41;5009840;28;1630;-66
2023/01/07 04:31:44;;;;;;;;;;;;;;;25.56;38.00;95881.28;5008479;28;1698;-65
2023/01/07 04:34:09;;;;;;;;;;;;;;;25.58;38.05;95886.44;5006719;28;1703;-65
2023/01/07 04:36:34;;;;;;;;;;;;;;;25.57;37.74;95892.84;5005950;28;1635;-66
2023/01/07 04:39:00;;;;;;;;;;;;;;;25.57;37.94;95899.03;5008889;28;1693;-65
2023/01/07 04:41:26;;;;;;;;;;;;;;;25.56;37.76;95886.66;5011657;28;1914;-66
2023/01/07 04:43:51;;;;;;;;;;;;;;;25.58;37.74;95886.44;5010026;28;1610;-65
2023/01/07 04:46:16;;;;;;;;;;;;;;;25.58;37.86;95886.44;5001293;28;1689;-67
2023/01/07 04:48:41;;;;;;;;;;;;;;;25.58;38.02;95884.56;5010593;28;1700;-65
2023/01/07 04:51:07;;;;;;;;;;;;;;;25.59;37.93;95885.41;5001291;28;1591;-65
2023/01/07 04:53:32;;;;;;;;;;;;;;;25.59;37.72;95885.41;5009547;28;1723;-65
2023/01/07 04:55:57;;;;;;;;;;;;;;;25.59;37.97;95890.78;5009526;28;1737;-66
2023/01/07 04:58:23;;;;;;;;;;;;;;;25.60;38.01;95892.41;5002177;28;1671;-66
2023/01/07 05:00:48;;;;;;;;;;;;;;;25.59;37.79;95888.09;5010017;28;1775;-65
2023/01/07 05:03:13;;;;;;;;;;;;;;;25.56;38.04;95888.53;5010123;28;1902;-67
2023/01/07 05:05:38;;;;;;;;;;;;;;;25.51;37.78;95885.66;5006421;28;1750;-66
2023/01/07 05:08:04;;;;;;;;;;;;;;;25.49;37.66;95885.84;5002322;28;2288;-67
2023/01/07 05:10:29;;;;;;;;;;;;;;;25.40;37.29;95878.28;5003729;28;1780;-65
2023/01/07 05:12:54;;;;;;;;;;;;;;;25.46;37.04;95890.84;5008950;28;1694;-66
2023/01/07 05:15:20;;;;;;;;;;;;;;;25.45;37.30;95894.59;5010377;28;1593;-66
2023/01/07 05:17:45;;;;;;;;;;;;;;;25.43;36.97;95894.78;5009286;28;1619;-66
2023/01/07 05:20:10;;;;;;;;;;;;;;;25.41;37.04;95899.53;4998784;28;1467;-68
2023/01/07 05:22:35;;;;;;;;;;;;;;;25.42;36.62;95900.38;5001502;28;1952;-67
2023/01/07 05:25:01;;;;;;;;;;;;;;;25.43;36.90;95902.03;5010068;28;1630;-67
2023/01/07 05:27:26;;;;;;;;;;;;;;;25.45;36.75;95894.59;5009260;28;1921;-67
2023/01/07 05:29:51;;;;;;;;;;;;;;;25.46;36.44;95902.41;5009037;28;1705;-68
2023/01/07 05:32:16;;;;;;;;;;;;;;;25.48;36.64;95896.84;4998975;28;1601;-67
2023/01/07 05:34:42;;;;;;;;;;;;;;;25.49;36.53;95901.16;5010528;28;1580;-67
2023/01/07 05:37:07;;;;;;;;;;;;;;;25.49;36.67;95904.66;5009988;28;1386;-67
2023/01/07 05:39:33;;;;;;;;;;;;;;;25.50;36.52;95906.34;5000992;28;1407;-68
2023/01/07 05:41:58;;;;;;;;;;;;;;;25.51;36.70;95907.16;5010240;28;1910;-66
2023/01/07 05:44:24;;;;;;;;;;;;;;;25.51;36.58;95907.97;5001489;28;2021;-65
2023/01/07 05:46:49;;;;;;;;;;;;;;;25.51;36.78;95904.47;5009139;28;1486;-66
2023/01/07 05:49:14;;;;;;;;;;;;;;;25.52;36.76;95906.91;5008512;28;1672;-65
2023/01/07 05:51:40;;;;;;;;;;;;;;;25.52;36.72;95904.22;5008890;28;1583;-65
2023/01/07 05:54:06;;;;;;;;;;;;;;;25.51;36.70;95902.59;5003067;28;1574;-66
2023/01/07 05:56:31;;;;;;;;;;;;;;;25.51;36.63;95899.09;5007672;28;1692;-65
2023/01/07 05:58:56;;;;;;;;;;;;;;;25.51;36.99;95899.09;5008508;28;1592;-65
2023/01/07 06:01:21;;;;;;;;;;;;;;;25.53;36.66;95913.16;5009467;28;1963;-65
2023/01/07 06:03:47;;;;;;;;;;;;;;;25.51;37.02;95905.28;5009787;28;1614;-64
2023/01/07 06:06:12;;;;;;;;;;;;;;;25.52;36.93;95912.28;4992609;28;1639;-66
2023/01/07 06:08:38;;;;;;;;;;;;;;;25.52;36.81;95914.97;5001552;28;1837;-65
2023/01/07 06:11:04;;;;;;;;;;;;;;;25.54;37.07;95914.78;5008078;28;1691;-66
2023/01/07 06:13:29;;;;;;;;;;;;;;;25.53;37.20;95913.16;5010021;28;1768;-65
2023/01/07 06:16:08;;;;;;;;;;;;;;;25.53;37.25;95913.97;5009259;28;1640;-66
2023/01/07 06:18:34;;;;;;;;;;;;;;;25.51;36.89;95917.91;5001560;28;1578;-65
2023/01/07 06:20:59;;;;;;;;;;;;;;;25.53;36.83;95929.25;4996921;28;1729;-66
2023/01/07 06:23:24;;;;;;;;;;;;;;;25.52;36.97;95920.34;5008910;28;1985;-66
2023/01/07 06:25:50;;;;;;;;;;;;;;;25.54;37.05;95922.84;5008398;28;1649;-66
2023/01/07 06:28:15;;;;;;;;;;;;;;;25.54;37.17;95925.53;5004649;28;1095;-69
2023/01/07 06:30:40;;;;;;;;;;;;;;;25.54;37.20;95922.84;5011447;28;1626;-67
2023/01/07 06:33:06;;;;;;;;;;;;;;;25.57;37.19;95925.91;5012851;28;1961;-68
2023/01/07 06:35:31;;;;;;;;;;;;;;;23.29;24.67;95933.41;5011109;28;1582;-64
2023/01/07 06:37:57;;;;;;;;;;;;;;;21.30;25.30;95935.25;5013876;28;1630;-64
2023/01/07 06:40:22;;;;;;;;;;;;;;;20.33;25.72;95931.84;5004178;28;1567;-64
2023/01/07 06:42:48;;;;;;;;;;;;;;;19.76;25.69;95933.16;5014252;28;1906;-65
2023/01/07 06:45:13;;;;;;;;;;;;;;;19.28;26.25;95930.59;5012992;28;1740;-65
2023/01/07 06:47:38;;;;;;;;;;;;;;;18.90;26.06;95934.94;5012548;28;1640;-65
2023/01/07 06:50:04;;;;;;;;;;;;;;;18.20;25.86;95936.38;5014342;28;1729;-65
2023/01/07 06:52:29;;;;;;;;;;;;;;;18.18;27.32;95927.75;5003990;28;1646;-63
2023/01/07 06:54:54;;;;;;;;;;;;;;;18.09;26.55;95939.38;5013400;28;1644;-63
2023/01/07 06:57:20;;;;;;;;;;;;;;;17.84;27.25;95937.72;5012335;28;1622;-65
2023/01/07 06:59:45;;;;;;;;;;;;;;;17.86;27.18;95949.84;5013406;28;1549;-64
2023/01/07 07:02:16;;;;;;;;;;;;;;;17.80;27.07;95949.69;5007922;28;1967;-64
2023/01/07 07:04:41;;;;;;;;;;;;;;;17.82;26.73;95947.69;5008481;28;1711;-64
2023/01/07 07:07:07;;;;;;;;;;;;;;;17.85;27.03;95952.69;5012685;28;1699;-65
2023/01/07 07:09:32;;;;;;;;;;;;;;;17.67;26.58;95945.66;5013514;28;1469;-64
2023/01/07 07:11:57;;;;;;;;;;;;;;;17.62;27.27;95942.66;5008979;28;1567;-66
2023/01/07 07:14:22;;;;;;;;;;;;;;;17.50;26.88;95954.56;4999937;28;1554;-65
2023/01/07 07:16:48;;;;;;;;;;;;;;;17.24;27.21;95949.38;5003230;28;1366;-65
2023/01/07 07:19:13;;;;;;;;;;;;;;;17.28;27.54;95943.59;5011865;28;1607;-65
2023/01/07 07:21:38;;;;;;;;;;;;;;;17.31;27.55;95943.28;5013340;28;1890;-65
2023/01/07 07:24:04;;;;;;;;;;;;;;;17.21;27.24;95952.34;5012755;28;1505;-65
2023/01/07 07:26:29;;;;;;;;;;;;;;;17.21;27.54;95939.09;5003411;28;1723;-64
2023/01/07 07:28:54;;;;;;;;;;;;;;;17.10;28.10;95950.81;5011414;28;1721;-66
2023/01/07 07:31:20;;;;;;;;;;;;;;;17.54;27.95;95951.44;5012994;28;1635;-65
2023/01/07 07:33:45;;;;;;;;;;;;;;;17.85;27.91;95948.19;5011957;28;1283;-65
2023/01/07 07:36:10;;;;;;;;;;;;;;;18.12;27.98;95946.19;5007631;28;973;-70
2023/01/07 07:38:35;;;;;;;;;;;;;;;18.62;28.32;95937.97;5006888;28;1811;-65
2023/01/07 07:41:01;;;;;;;;;;;;;;;18.87;27.42;95940.59;5013396;28;1728;-64
2023/01/07 07:43:26;;;;;;;;;;;;;;;19.02;27.14;95935.38;5013136;28;1946;-65
2023/01/07 07:45:51;;;;;;;;;;;;;;;19.13;26.99;95932.34;5011169;28;1777;-64
2023/01/07 07:48:16;;;;;;;;;;;;;;;19.18;26.47;95937.13;5003280;28;1570;-66
2023/01/07 07:50:42;;;;;;;;;;;;;;;19.31;26.71;95940.88;5008075;28;823;-70
2023/01/07 07:53:09;;;;;;;;;;;;;;;19.40;26.31;95941.66;5007866;28;1275;-71
2023/01/07 07:55:38;;;;;;;;;;;;;;;19.47;26.31;95939.16;5009822;28;1535;-67
2023/01/07 07:58:03;;;;;;;;;;;;;;;19.35;26.33;95937.88;5011840;28;1882;-65
2023/01/07 08:00:28;;;;;;;;;;;;;;;19.39;27.51;95937.34;5001482;28;1809;-73
2023/01/07 08:02:59;;;;;;;;;;;;;;;20.18;28.50;95937.16;5009937;28;1902;-65
2023/01/07 08:05:25;;;;;;;;;;;;;;;20.79;28.56;95937.88;5012474;28;1553;-63
2023/01/07 08:07:50;;;;;;;;;;;;;;;21.19;28.38;95940.25;5011682;28;1728;-65
2023/01/07 08:10:16;;;;;;;;;;;;;;;21.45;28.31;95945.09;5007701;28;1662;-64
2023/01/07 08:12:41;;;;;;;;;;;;;;;21.67;28.26;95948.63;5006933;28;1086;-65
2023/01/07 08:15:06;;;;;;;;;;;;;;;21.85;28.12;95935.66;5011324;28;902;-65
2023/01/07 08:17:32;;;;;;;;;;;;;;;22.02;28.36;95944.25;5010336;28;1292;-66
2023/01/07 08:19:57;;;;;;;;;;;;;;;22.16;28.40;95943.34;5011019;28;823;-65
2023/01/07 08:22:22;;;;;;;;;;;;;;;22.29;28.41;95942.66;5000909;28;1902;-64
2023/01/07 08:24:48;;;;;;;;;;;;;;;22.40;28.47;95936.78;5009089;28;1299;-65
2023/01/07 08:27:13;;;;;;;;;;;;;;;22.50;28.34;95944.47;5010122;28;769;-66
2023/01/07 08:29:38;;;;;;;;;;;;;;;22.60;28.45;95933.44;5009851;28;1132;-67
2023/01/07 08:32:03;;;;;;;;;;;;;;;22.68;28.44;95935.94;5010244;28;875;-65
2023/01/07 08:34:29;;;;;;;;;;;;;;;22.76;28.27;95935.78;5001395;28;946;-65
2023/01/07 08:36:54;;;;;;;;;;;;;;;22.82;28.48;95937.66;5010488;28;863;-66
2023/01/07 08:39:19;;;;;;;;;;;;;;;22.89;28.40;95937.72;5011087;28;907;-65
2023/01/07 08:41:45;;;;;;;;;;;;;;;22.94;28.48;95940.63;5012210;28;1973;-65
2023/01/07 08:44:10;;;;;;;;;;;;;;;22.99;28.59;95935.53;5007380;28;913;-65
2023/01/07 08:46:35;;;;;;;;;;;;;;;23.05;28.69;95940.09;5006905;28;1209;-65
2023/01/07 08:49:00;;;;;;;;;;;;;;;23.10;28.44;95934.13;5010883;28;1446;-65
2023/01/07 08:51:26;;;;;;;;;;;;;;;23.14;28.61;95940.75;5011536;28;807;-66
2023/01/07 08:53:51;;;;;;;;;;;;;;;23.18;28.45;95931.31;5012070;28;882;-65
2023/01/07 08:56:17;;;;;;;;;;;;;;;23.23;28.52;95928.84;5002728;28;1051;-65
2023/01/07 08:58:42;;;;;;;;;;;;;;;23.27;28.52;95927.41;5011098;28;944;-65
2023/01/07 09:01:07;;;;;;;;;;;;;;;23.30;28.58;95916.31;5011599;28;902;-66
2023/01/07 09:03:33;;;;;;;;;;;;;;;23.34;28.41;95922.94;5011490;28;1957;-65
2023/01/07 09:05:58;;;;;;;;;;;;;;;23.38;28.46;95918.00;5009992;28;1283;-65
2023/01/07 09:08:23;;;;;;;;;;;;;;;23.42;28.54;95911.19;5002144;28;1071;-65
2023/01/07 09:10:49;;;;;;;;;;;;;;;23.45;28.54;95904.59;5011799;28;807;-65
2023/01/07 09:13:14;;;;;;;;;;;;;;;23.48;28.41;95904.19;5011202;28;870;-65
2023/01/07 09:15:39;;;;;;;;;;;;;;;23.50;28.59;95897.63;5011554;28;724;-65
2023/01/07 09:18:05;;;;;;;;;;;;;;;23.54;28.43;95906.91;5008114;28;898;-67
2023/01/07 09:20:31;;;;;;;;;;;;;;;23.58;28.45;95902.78;5003519;28;1232;-65
2023/01/07 09:22:56;;;;;;;;;;;;;;;23.61;28.49;95903.44;5011499;28;1902;-65
2023/01/07 09:25:21;;;;;;;;;;;;;;;23.63;28.54;95891.47;5011407;28;863;-65
2023/01/07 09:27:48;;;;;;;;;;;;;;;23.67;28.52;95891.91;5009406;28;1349;-66
2023/01/07 09:30:13;;;;;;;;;;;;;;;23.69;28.83;95885.31;5002230;28;1110;-65
2023/01/07 09:32:38;;;;;;;;;;;;;;;23.72;28.66;95884.09;5009554;28;1372;-65
2023/01/07 09:35:04;;;;;;;;;;;;;;;23.73;28.47;95875.84;5010912;28;825;-65
2023/01/07 09:37:30;;;;;;;;;;;;;;;23.76;28.53;95872.78;5010943;28;935;-65
2023/01/07 09:39:55;;;;;;;;;;;;;;;23.78;28.50;95862.66;5011064;28;967;-66
2023/01/07 09:42:37;;;;;;;;;;;;;;;23.81;28.56;95860.63;5000030;28;1966;-68
2023/01/07 09:45:23;;;;;;;;;;;;;;;23.84;28.63;95860.22;5009953;28;1165;-65
2023/01/07 09:47:51;;;;;;;;;;;;;;;23.84;28.59;95855.66;5009234;28;1172;-65
2023/01/07 09:50:35;;;;;;;;;;;;;;;23.87;28.62;95841.84;5009126;28;1195;-65
2023/01/07 09:53:04;;;;;;;;;;;;;;;23.89;28.74;95842.47;5000334;28;1256;-66
2023/01/07 09:55:34;;;;;;;;;;;;;;;23.93;28.73;95834.84;5010633;28;974;-65
2023/01/07 09:57:59;;;;;;;;;;;;;;;23.94;28.82;95834.66;5010426;28;947;-65
2023/01/07 10:00:25;;;;;;;;;;;;;;;23.97;28.82;95833.41;5010819;28;824;-66
2023/01/07 10:03:05;;;;;;;;;;;;;;;23.98;28.62;95827.00;5010397;28;1930;-67
2023/01/07 10:05:30;;;;;;;;;;;;;;;24.00;28.79;95823.09;5000172;28;1336;-67
2023/01/07 10:08:08;;;;;;;;;;;;;;;24.01;28.71;95811.34;5009451;28;1288;-66
2023/01/07 10:10:41;;;;;;;;;;;;;;;24.04;28.66;95818.13;5010873;28;882;-65
2023/01/07 10:13:18;;;;;;;;;;;;;;;24.06;28.78;95809.91;5010648;28;991;-66
2023/01/07 10:15:55;;;;;;;;;;;;;;;24.07;28.86;95801.63;5001392;28;1155;-65
2023/01/07 10:18:23;;;;;;;;;;;;;;;24.07;29.01;95804.31;5010624;28;1099;-65
2023/01/07 10:21:17;;;;;;;;;;;;;;;24.09;28.72;95794.22;5010549;28;815;-66
2023/01/07 10:23:46;;;;;;;;;;;;;;;24.10;28.79;95795.84;4974403;28;1964;-65
2023/01/07 10:26:21;;;;;;;;;;;;;;;24.12;28.86;95790.31;5007997;28;1489;-66
2023/01/07 10:28:52;;;;;;;;;;;;;;;24.13;28.77;95783.91;5005084;28;1124;-65
2023/01/07 10:31:20;;;;;;;;;;;;;;;24.14;28.78;95780.19;5010683;28;931;-65
2023/01/07 10:33:46;;;;;;;;;;;;;;;24.16;28.91;95778.13;5010845;28;823;-65
2023/01/07 10:36:23;;;;;;;;;;;;;;;24.18;28.96;95776.06;5008979;28;1275;-66
2023/01/07 10:38:55;;;;;;;;;;;;;;;24.19;28.80;95772.34;5001127;28;982;-66
2023/01/07 10:41:29;;;;;;;;;;;;;;;24.19;28.79;95769.66;5010569;28;1074;-65
2023/01/07 10:44:12;;;;;;;;;;;;;;;24.20;28.83;95758.72;5010155;28;930;-65
2023/01/07 10:46:41;;;;;;;;;;;;;;;24.20;28.81;95752.56;5008846;28;1317;-65
2023/01/07 10:49:23;;;;;;;;;;;;;;;24.20;28.99;95742.66;5005222;28;914;-66
2023/01/07 10:51:57;;;;;;;;;;;;;;;24.23;29.04;95749.44;5005687;28;935;-65
2023/01/07 10:54:22;;;;;;;;;;;;;;;24.24;28.77;95748.41;5010445;28;897;-65
2023/01/07 10:56:56;;;;;;;;;;;;;;;24.26;29.12;95740.16;5010023;28;866;-65
2023/01/07 10:59:23;;;;;;;;;;;;;;;24.26;28.97;95735.63;5010184;28;823;-66
2023/01/07 11:01:54;;;;;;;;;;;;;;;24.27;28.88;95725.72;5000749;28;1906;-65
2023/01/07 11:04:20;;;;;;;;;;;;;;;24.27;28.85;95726.53;5008190;28;1375;-66
2023/01/07 11:06:51;;;;;;;;;;;;;;;24.29;28.88;95718.28;5010299;28;869;-65
2023/01/07 11:09:20;;;;;;;;;;;;;;;24.30;28.90;95726.09;5010176;28;823;-66
2023/01/07 11:11:47;;;;;;;;;;;;;;;24.31;29.18;95722.41;5005337;28;973;-65
2023/01/07 11:14:19;;;;;;;;;;;;;;;24.33;28.96;95714.13;5005517;28;1153;-65
2023/01/07 11:16:50;;;;;;;;;;;;;;;24.32;29.10;95707.94;5013750;28;975;-66
2023/01/07 11:19:16;;;;;;;;;;;;;;;24.34;29.08;95710.44;5013429;28;964;-65
2023/01/07 11:21:43;;;;;;;;;;;;;;;24.34;29.11;95700.53;5013838;28;1982;-65
2023/01/07 11:24:27;;;;;;;;;;;;;;;24.35;29.10;95701.34;5004636;28;1299;-64
2023/01/07 11:26:58;;;;;;;;;;;;;;;24.35;28.97;95698.66;5013771;28;898;-64
2023/01/07 11:29:25;;;;;;;;;;;;;;;24.36;28.88;95697.63;5013516;28;1225;-65
2023/01/07 11:31:54;;;;;;;;;;;;;;;24.36;29.08;95685.06;5013802;28;863;-65
2023/01/07 11:34:31;;;;;;;;;;;;;;;24.38;29.14;95685.63;5011914;28;929;-65
2023/01/07 11:36:56;;;;;;;;;;;;;;;24.37;28.90;95681.31;5008944;28;1146;-64
2023/01/07 11:39:23;;;;;;;;;;;;;;;24.37;29.12;95673.28;5013383;28;878;-65
2023/01/07 11:41:52;;;;;;;;;;;;;;;24.39;29.08;95671.22;5011706;28;1977;-65
2023/01/07 11:44:18;;;;;;;;;;;;;;;24.38;29.03;95664.19;5013290;28;942;-65
2023/01/07 11:46:44;;;;;;;;;;;;;;;24.39;29.01;95660.50;5002793;28;1506;-65
2023/01/07 11:49:19;;;;;;;;;;;;;;;24.40;29.07;95662.13;5012810;28;1091;-65
2023/01/07 11:51:44;;;;;;;;;;;;;;;24.41;29.01;95661.06;5013172;28;851;-65
2023/01/07 11:54:28;;;;;;;;;;;;;;;24.42;29.05;95659.25;5013459;28;812;-65
2023/01/07 11:57:09;;;;;;;;;;;;;;;24.42;29.06;95653.88;5012931;28;886;-66
2023/01/07 11:59:35;;;;;;;;;;;;;;;24.42;29.36;95649.34;5007547;28;955;-66
2023/01/07 12:02:00;;;;;;;;;;;;;;;24.43;29.07;95650.19;5013265;28;1966;-65
2023/01/07 12:04:27;;;;;;;;;;;;;;;24.43;28.93;95645.63;5012641;28;1412;-66
2023/01/07 12:06:53;;;;;;;;;;;;;;;24.44;29.28;95644.59;5013128;28;883;-67
2023/01/07 12:09:31;;;;;;;;;;;;;;;24.44;29.29;95636.53;5003949;28;1152;-66
2023/01/07 12:11:58;;;;;;;;;;;;;;;24.44;29.29;95630.34;5011118;28;1194;-66
2023/01/07 12:14:23;;;;;;;;;;;;;;;24.44;29.13;95625.00;5012745;28;894;-65
2023/01/07 12:16:50;;;;;;;;;;;;;;;24.46;29.19;95628.28;5013006;28;941;-65
2023/01/07 12:19:22;;;;;;;;;;;;;;;24.45;29.10;95619.44;5011377;28;1378;-66
2023/01/07 12:21:53;;;;;;;;;;;;;;;24.45;29.15;95614.06;5001817;28;1922;-65
2023/01/07 12:24:21;;;;;;;;;;;;;;;24.46;29.11;95612.19;5012648;28;938;-65
2023/01/07 12:26:54;;;;;;;;;;;;;;;24.46;29.02;95613.00;5012238;28;1033;-65
2023/01/07 12:29:38;;;;;;;;;;;;;;;24.48;29.14;95614.66;5010922;28;1427;-65
2023/01/07 12:32:22;;;;;;;;;;;;;;;24.47;29.18;95611.16;5003175;28;1195;-64
2023/01/07 12:34:57;;;;;;;;;;;;;;;24.46;29.40;95598.78;5012047;28;933;-64
2023/01/07 12:37:22;;;;;;;;;;;;;;;24.46;29.20;95607.66;5012405;28;827;-64
2023/01/07 12:39:50;;;;;;;;;;;;;;;24.46;29.31;95604.97;5012188;28;847;-64
2023/01/07 12:42:19;;;;;;;;;;;;;;;24.46;29.24;95602.28;5011722;28;1906;-64
2023/01/07 12:44:50;;;;;;;;;;;;;;;24.48;29.31;95598.56;5003218;28;1136;-65
2023/01/07 12:47:26;;;;;;;;;;;;;;;24.49;29.14;95597.53;5012123;28;783;-67
2023/01/07 12:49:54;;;;;;;;;;;;;;;24.48;29.14;95601.25;5012463;28;803;-64
2023/01/07 12:52:42;;;;;;;;;;;;;;;24.48;29.12;95598.56;5011754;28;905;-65
2023/01/07 12:55:21;;;;;;;;;;;;;;;24.48;29.21;95610.13;4996724;28;1136;-64
2023/01/07 12:57:55;;;;;;;;;;;;;;;24.46;29.17;95599.59;5012199;28;874;-64
2023/01/07 13:00:25;;;;;;;;;;;;;;;24.49;29.11;95606.41;5011824;28;819;-64
2023/01/07 13:02:53;;;;;;;;;;;;;;;24.48;29.17;95587.81;5011263;28;1898;-65
2023/01/07 13:05:45;;;;;;;;;;;;;;;24.48;29.14;95594.03;5008349;28;910;-66